sensor_id;sensor_type;location;lat;lon;timestamp;P1;durP1;ratioP1;P2;durP2;ratioP2
15841;SDS011;8021;48.022;11.812;2022-07-17T00:02:18;0.30;;;0.20;;
15841;SDS011;8021;48.022;11.812;2022-07-17T00:04:46;0.20;;;0.20;;
15841;SDS011;8021;48.022;11.812;2022-07-17T00:07:14;0.20;;;0.20;;
15841;SDS011;8021;48.022;11.812;2022-07-17T00:09:41;0.22;;;0.22;;
15841;SDS011;8021;48.022;11.812;2022-07-17T00:12:09;0.20;;;0.20;;
15841;SDS011;8021;48.022;11.812;2022-07-17T00:14:36;0.20;;;0.20;;
15841;SDS011;8021;48.022;11.812;2022-07-17T00:17:04;0.20;;;0.20;;
15841;SDS011;8021;48.022;11.812;2022-07-17T00:19:33;0.30;;;0.30;;
15841;SDS011;8021;48.022;11.812;2022-07-17T00:22:01;0.30;;;0.20;;
15841;SDS011;8021;48.022;11.812;2022-07-17T00:24:29;0.30;;;0.20;;
15841;SDS011;8021;48.022;11.812;2022-07-17T00:26:56;0.30;;;0.25;;
15841;SDS011;8021;48.022;11.812;2022-07-17T00:29:24;0.22;;;0.20;;
15841;SDS011;8021;48.022;11.812;2022-07-17T00:31:51;0.20;;;0.20;;
15841;SDS011;8021;48.022;11.812;2022-07-17T00:34:19;0.20;;;0.20;;
15841;SDS011;8021;48.022;11.812;2022-07-17T00:36:48;0.20;;;0.20;;
15841;SDS011;8021;48.022;11.812;2022-07-17T00:39:16;0.20;;;0.20;;
15841;SDS011;8021;48.022;11.812;2022-07-17T00:41:43;0.30;;;0.30;;
15841;SDS011;8021;48.022;11.812;2022-07-17T00:44:11;0.20;;;0.20;;
15841;SDS011;8021;48.022;11.812;2022-07-17T00:46:39;0.30;;;0.25;;
15841;SDS011;8021;48.022;11.812;2022-07-17T00:49:07;0.30;;;0.25;;
15841;SDS011;8021;48.022;11.812;2022-07-17T00:51:35;0.30;;;0.25;;
15841;SDS011;8021;48.022;11.812;2022-07-17T00:54:04;0.30;;;0.30;;
15841;SDS011;8021;48.022;11.812;2022-07-17T00:56:35;0.20;;;0.20;;
15841;SDS011;8021;48.022;11.812;2022-07-17T00:59:03;0.30;;;0.30;;
15841;SDS011;8021;48.022;11.812;2022-07-17T01:01:32;0.30;;;0.28;;
15841;SDS011;8021;48.022;11.812;2022-07-17T01:04:00;0.20;;;0.20;;
15841;SDS011;8021;48.022;11.812;2022-07-17T01:06:29;0.20;;;0.20;;
15841;SDS011;8021;48.022;11.812;2022-07-17T01:08:57;0.28;;;0.20;;
15841;SDS011;8021;48.022;11.812;2022-07-17T01:11:26;0.20;;;0.20;;
15841;SDS011;8021;48.022;11.812;2022-07-17T01:13:53;0.20;;;0.20;;
15841;SDS011;8021;48.022;11.812;2022-07-17T01:16:21;0.20;;;0.20;;
15841;SDS011;8021;48.022;11.812;2022-07-17T01:18:49;0.20;;;0.20;;
15841;SDS011;8021;48.022;11.812;2022-07-17T01:21:18;0.25;;;0.20;;
15841;SDS011;8021;48.022;11.812;2022-07-17T01:23:46;0.30;;;0.30;;
15841;SDS011;8021;48.022;11.812;2022-07-17T01:26:13;0.30;;;0.20;;
15841;SDS011;8021;48.022;11.812;2022-07-17T01:28:42;0.30;;;0.30;;
15841;SDS011;8021;48.022;11.812;2022-07-17T01:31:09;0.30;;;0.20;;
15841;SDS011;8021;48.022;11.812;2022-07-17T01:33:37;0.30;;;0.30;;
15841;SDS011;8021;48.022;11.812;2022-07-17T01:36:04;0.30;;;0.30;;
15841;SDS011;8021;48.022;11.812;2022-07-17T01:38:33;0.30;;;0.20;;
15841;SDS011;8021;48.022;11.812;2022-07-17T01:41:01;0.30;;;0.20;;
15841;SDS011;8021;48.022;11.812;2022-07-17T01:43:28;0.30;;;0.30;;
15841;SDS011;8021;48.022;11.812;2022-07-17T01:45:56;0.20;;;0.20;;
15841;SDS011;8021;48.022;11.812;2022-07-17T01:48:24;0.30;;;0.28;;
15841;SDS011;8021;48.022;11.812;2022-07-17T01:50:52;0.30;;;0.30;;
15841;SDS011;8021;48.022;11.812;2022-07-17T01:53:20;0.30;;;0.20;;
15841;SDS011;8021;48.022;11.812;2022-07-17T01:55:49;0.30;;;0.30;;
15841;SDS011;8021;48.022;11.812;2022-07-17T01:58:16;0.30;;;0.30;;
15841;SDS011;8021;48.022;11.812;2022-07-17T02:00:44;0.30;;;0.30;;
15841;SDS011;8021;48.022;11.812;2022-07-17T02:03:11;0.30;;;0.22;;
15841;SDS011;8021;48.022;11.812;2022-07-17T02:05:39;0.30;;;0.20;;
15841;SDS011;8021;48.022;11.812;2022-07-17T02:08:06;0.30;;;0.30;;
15841;SDS011;8021;48.022;11.812;2022-07-17T02:10:34;0.30;;;0.30;;
15841;SDS011;8021;48.022;11.812;2022-07-17T02:13:03;0.30;;;0.20;;
15841;SDS011;8021;48.022;11.812;2022-07-17T02:15:30;0.40;;;0.40;;
15841;SDS011;8021;48.022;11.812;2022-07-17T02:17:58;0.28;;;0.20;;
15841;SDS011;8021;48.022;11.812;2022-07-17T02:20:27;0.30;;;0.20;;
15841;SDS011;8021;48.022;11.812;2022-07-17T02:22:55;0.30;;;0.25;;
15841;SDS011;8021;48.022;11.812;2022-07-17T02:25:22;0.30;;;0.20;;
15841;SDS011;8021;48.022;11.812;2022-07-17T02:27:54;0.30;;;0.30;;
15841;SDS011;8021;48.022;11.812;2022-07-17T02:30:22;0.30;;;0.30;;
15841;SDS011;8021;48.022;11.812;2022-07-17T02:32:50;0.30;;;0.30;;
15841;SDS011;8021;48.022;11.812;2022-07-17T02:35:18;0.30;;;0.30;;
15841;SDS011;8021;48.022;11.812;2022-07-17T02:37:45;0.30;;;0.30;;
15841;SDS011;8021;48.022;11.812;2022-07-17T02:40:13;0.30;;;0.20;;
15841;SDS011;8021;48.022;11.812;2022-07-17T02:42:41;0.30;;;0.30;;
15841;SDS011;8021;48.022;11.812;2022-07-17T02:45:09;0.30;;;0.30;;
15841;SDS011;8021;48.022;11.812;2022-07-17T02:47:41;0.30;;;0.30;;
15841;SDS011;8021;48.022;11.812;2022-07-17T02:50:09;0.30;;;0.30;;
15841;SDS011;8021;48.022;11.812;2022-07-17T02:52:37;0.30;;;0.30;;
15841;SDS011;8021;48.022;11.812;2022-07-17T02:55:05;0.32;;;0.32;;
15841;SDS011;8021;48.022;11.812;2022-07-17T02:57:32;0.30;;;0.30;;
15841;SDS011;8021;48.022;11.812;2022-07-17T03:00:00;0.30;;;0.22;;
15841;SDS011;8021;48.022;11.812;2022-07-17T03:02:28;0.30;;;0.30;;
15841;SDS011;8021;48.022;11.812;2022-07-17T03:04:57;0.30;;;0.30;;
15841;SDS011;8021;48.022;11.812;2022-07-17T03:07:24;0.30;;;0.30;;
15841;SDS011;8021;48.022;11.812;2022-07-17T03:09:52;0.30;;;0.30;;
15841;SDS011;8021;48.022;11.812;2022-07-17T03:12:20;0.30;;;0.30;;
15841;SDS011;8021;48.022;11.812;2022-07-17T03:14:48;0.30;;;0.30;;
15841;SDS011;8021;48.022;11.812;2022-07-17T03:17:16;0.30;;;0.30;;
15841;SDS011;8021;48.022;11.812;2022-07-17T03:19:43;0.32;;;0.32;;
15841;SDS011;8021;48.022;11.812;2022-07-17T03:22:15;0.30;;;0.20;;
15841;SDS011;8021;48.022;11.812;2022-07-17T03:24:43;0.30;;;0.20;;
15841;SDS011;8021;48.022;11.812;2022-07-17T03:27:11;0.38;;;0.38;;
15841;SDS011;8021;48.022;11.812;2022-07-17T03:29:38;0.30;;;0.30;;
15841;SDS011;8021;48.022;11.812;2022-07-17T03:32:06;0.40;;;0.40;;
15841;SDS011;8021;48.022;11.812;2022-07-17T03:34:33;0.40;;;0.40;;
15841;SDS011;8021;48.022;11.812;2022-07-17T03:37:01;0.35;;;0.35;;
15841;SDS011;8021;48.022;11.812;2022-07-17T03:39:31;0.30;;;0.30;;
15841;SDS011;8021;48.022;11.812;2022-07-17T03:41:58;0.30;;;0.30;;
15841;SDS011;8021;48.022;11.812;2022-07-17T03:44:26;0.30;;;0.30;;
15841;SDS011;8021;48.022;11.812;2022-07-17T03:46:53;0.30;;;0.20;;
15841;SDS011;8021;48.022;11.812;2022-07-17T03:49:21;0.30;;;0.22;;
15841;SDS011;8021;48.022;11.812;2022-07-17T03:51:49;0.30;;;0.30;;
15841;SDS011;8021;48.022;11.812;2022-07-17T03:54:16;0.30;;;0.30;;
15841;SDS011;8021;48.022;11.812;2022-07-17T03:56:45;0.40;;;0.40;;
15841;SDS011;8021;48.022;11.812;2022-07-17T03:59:13;0.30;;;0.22;;
15841;SDS011;8021;48.022;11.812;2022-07-17T04:01:41;0.30;;;0.30;;
15841;SDS011;8021;48.022;11.812;2022-07-17T04:04:08;0.30;;;0.30;;
15841;SDS011;8021;48.022;11.812;2022-07-17T04:06:36;0.30;;;0.30;;
15841;SDS011;8021;48.022;11.812;2022-07-17T04:09:04;0.30;;;0.30;;
15841;SDS011;8021;48.022;11.812;2022-07-17T04:11:31;0.30;;;0.30;;
15841;SDS011;8021;48.022;11.812;2022-07-17T04:14:00;0.30;;;0.30;;
15841;SDS011;8021;48.022;11.812;2022-07-17T04:16:28;0.20;;;0.10;;
15841;SDS011;8021;48.022;11.812;2022-07-17T04:18:56;0.20;;;0.20;;
15841;SDS011;8021;48.022;11.812;2022-07-17T04:21:24;0.20;;;0.20;;
15841;SDS011;8021;48.022;11.812;2022-07-17T04:23:52;0.20;;;0.10;;
15841;SDS011;8021;48.022;11.812;2022-07-17T04:26:20;0.20;;;0.20;;
15841;SDS011;8021;48.022;11.812;2022-07-17T04:28:48;0.20;;;0.20;;
15841;SDS011;8021;48.022;11.812;2022-07-17T04:31:16;0.13;;;0.13;;
15841;SDS011;8021;48.022;11.812;2022-07-17T04:33:44;0.10;;;0.10;;
15841;SDS011;8021;48.022;11.812;2022-07-17T04:36:12;0.10;;;0.10;;
15841;SDS011;8021;48.022;11.812;2022-07-17T04:38:39;0.10;;;0.10;;
15841;SDS011;8021;48.022;11.812;2022-07-17T04:41:07;0.10;;;0.10;;
15841;SDS011;8021;48.022;11.812;2022-07-17T04:43:34;0.10;;;0.00;;
15841;SDS011;8021;48.022;11.812;2022-07-17T04:46:02;0.08;;;0.08;;
15841;SDS011;8021;48.022;11.812;2022-07-17T04:48:31;0.03;;;0.03;;
15841;SDS011;8021;48.022;11.812;2022-07-17T04:50:58;0.00;;;0.00;;
15841;SDS011;8021;48.022;11.812;2022-07-17T04:53:26;0.10;;;0.10;;
15841;SDS011;8021;48.022;11.812;2022-07-17T04:55:55;0.10;;;0.10;;
15841;SDS011;8021;48.022;11.812;2022-07-17T04:58:22;0.00;;;0.00;;
15841;SDS011;8021;48.022;11.812;2022-07-17T05:00:50;0.00;;;0.00;;
15841;SDS011;8021;48.022;11.812;2022-07-17T05:03:18;0.00;;;0.00;;
15841;SDS011;8021;48.022;11.812;2022-07-17T05:05:47;0.00;;;0.00;;
15841;SDS011;8021;48.022;11.812;2022-07-17T05:08:14;0.00;;;0.00;;
15841;SDS011;8021;48.022;11.812;2022-07-17T05:10:42;0.00;;;0.00;;
15841;SDS011;8021;48.022;11.812;2022-07-17T05:13:10;0.00;;;0.00;;
15841;SDS011;8021;48.022;11.812;2022-07-17T05:15:38;0.10;;;0.00;;
15841;SDS011;8021;48.022;11.812;2022-07-17T05:18:06;0.00;;;0.00;;
15841;SDS011;8021;48.022;11.812;2022-07-17T05:20:34;0.00;;;0.00;;
15841;SDS011;8021;48.022;11.812;2022-07-17T05:23:03;0.00;;;0.00;;
15841;SDS011;8021;48.022;11.812;2022-07-17T05:25:31;0.00;;;0.00;;
15841;SDS011;8021;48.022;11.812;2022-07-17T05:27:58;0.00;;;0.00;;
15841;SDS011;8021;48.022;11.812;2022-07-17T05:30:26;0.00;;;0.00;;
15841;SDS011;8021;48.022;11.812;2022-07-17T05:32:53;0.00;;;0.00;;
15841;SDS011;8021;48.022;11.812;2022-07-17T05:35:21;0.00;;;0.00;;
15841;SDS011;8021;48.022;11.812;2022-07-17T05:37:48;0.00;;;0.00;;
15841;SDS011;8021;48.022;11.812;2022-07-17T05:40:17;0.00;;;0.00;;
15841;SDS011;8021;48.022;11.812;2022-07-17T05:42:45;0.00;;;0.00;;
15841;SDS011;8021;48.022;11.812;2022-07-17T05:45:12;0.00;;;0.00;;
15841;SDS011;8021;48.022;11.812;2022-07-17T05:47:40;0.00;;;0.00;;
15841;SDS011;8021;48.022;11.812;2022-07-17T05:50:08;0.00;;;0.00;;
15841;SDS011;8021;48.022;11.812;2022-07-17T05:52:35;0.00;;;0.00;;
15841;SDS011;8021;48.022;11.812;2022-07-17T05:55:03;0.00;;;0.00;;
15841;SDS011;8021;48.022;11.812;2022-07-17T05:57:32;0.00;;;0.00;;
15841;SDS011;8021;48.022;11.812;2022-07-17T06:00:00;0.00;;;0.00;;
15841;SDS011;8021;48.022;11.812;2022-07-17T06:02:53;0.00;;;0.00;;
15841;SDS011;8021;48.022;11.812;2022-07-17T06:05:20;0.00;;;0.00;;
15841;SDS011;8021;48.022;11.812;2022-07-17T06:07:48;0.00;;;0.00;;
15841;SDS011;8021;48.022;11.812;2022-07-17T06:10:15;0.00;;;0.00;;
15841;SDS011;8021;48.022;11.812;2022-07-17T06:12:44;0.00;;;0.00;;
15841;SDS011;8021;48.022;11.812;2022-07-17T06:15:12;0.00;;;0.00;;
15841;SDS011;8021;48.022;11.812;2022-07-17T06:17:40;0.00;;;0.00;;
15841;SDS011;8021;48.022;11.812;2022-07-17T06:20:10;0.00;;;0.00;;
15841;SDS011;8021;48.022;11.812;2022-07-17T06:22:38;0.00;;;0.00;;
15841;SDS011;8021;48.022;11.812;2022-07-17T06:25:05;0.00;;;0.00;;
15841;SDS011;8021;48.022;11.812;2022-07-17T06:27:33;0.00;;;0.00;;
15841;SDS011;8021;48.022;11.812;2022-07-17T06:30:02;0.00;;;0.00;;
15841;SDS011;8021;48.022;11.812;2022-07-17T06:32:30;0.00;;;0.00;;
15841;SDS011;8021;48.022;11.812;2022-07-17T06:34:59;0.00;;;0.00;;
15841;SDS011;8021;48.022;11.812;2022-07-17T06:37:26;0.00;;;0.00;;
15841;SDS011;8021;48.022;11.812;2022-07-17T06:39:54;0.00;;;0.00;;
15841;SDS011;8021;48.022;11.812;2022-07-17T06:42:21;0.00;;;0.00;;
15841;SDS011;8021;48.022;11.812;2022-07-17T06:44:55;0.00;;;0.00;;
15841;SDS011;8021;48.022;11.812;2022-07-17T06:47:24;0.00;;;0.00;;
15841;SDS011;8021;48.022;11.812;2022-07-17T06:49:51;0.00;;;0.00;;
15841;SDS011;8021;48.022;11.812;2022-07-17T06:52:19;0.00;;;0.00;;
15841;SDS011;8021;48.022;11.812;2022-07-17T06:54:46;0.00;;;0.00;;
15841;SDS011;8021;48.022;11.812;2022-07-17T06:57:14;0.00;;;0.00;;
15841;SDS011;8021;48.022;11.812;2022-07-17T06:59:41;0.00;;;0.00;;
15841;SDS011;8021;48.022;11.812;2022-07-17T07:02:09;0.00;;;0.00;;
15841;SDS011;8021;48.022;11.812;2022-07-17T07:04:38;0.00;;;0.00;;
15841;SDS011;8021;48.022;11.812;2022-07-17T07:07:06;0.00;;;0.00;;
15841;SDS011;8021;48.022;11.812;2022-07-17T07:09:33;0.00;;;0.00;;
15841;SDS011;8021;48.022;11.812;2022-07-17T07:12:01;0.00;;;0.00;;
15841;SDS011;8021;48.022;11.812;2022-07-17T07:14:28;0.00;;;0.00;;
15841;SDS011;8021;48.022;11.812;2022-07-17T07:16:56;0.00;;;0.00;;
15841;SDS011;8021;48.022;11.812;2022-07-17T07:19:23;0.00;;;0.00;;
15841;SDS011;8021;48.022;11.812;2022-07-17T07:21:52;0.00;;;0.00;;
15841;SDS011;8021;48.022;11.812;2022-07-17T07:24:20;0.00;;;0.00;;
15841;SDS011;8021;48.022;11.812;2022-07-17T07:26:47;0.00;;;0.00;;
15841;SDS011;8021;48.022;11.812;2022-07-17T07:29:15;0.00;;;0.00;;
15841;SDS011;8021;48.022;11.812;2022-07-17T07:31:43;0.00;;;0.00;;
15841;SDS011;8021;48.022;11.812;2022-07-17T07:34:10;0.00;;;0.00;;
15841;SDS011;8021;48.022;11.812;2022-07-17T07:36:38;0.00;;;0.00;;
15841;SDS011;8021;48.022;11.812;2022-07-17T07:39:07;0.00;;;0.00;;
15841;SDS011;8021;48.022;11.812;2022-07-17T07:41:34;0.00;;;0.00;;
15841;SDS011;8021;48.022;11.812;2022-07-17T07:44:02;0.00;;;0.00;;
15841;SDS011;8021;48.022;11.812;2022-07-17T07:46:30;0.00;;;0.00;;
15841;SDS011;8021;48.022;11.812;2022-07-17T07:48:57;0.00;;;0.00;;
15841;SDS011;8021;48.022;11.812;2022-07-17T07:51:25;0.00;;;0.00;;
15841;SDS011;8021;48.022;11.812;2022-07-17T07:54:14;0.00;;;0.00;;
15841;SDS011;8021;48.022;11.812;2022-07-17T07:56:41;0.00;;;0.00;;
15841;SDS011;8021;48.022;11.812;2022-07-17T07:59:09;0.00;;;0.00;;
15841;SDS011;8021;48.022;11.812;2022-07-17T08:01:36;0.00;;;0.00;;
15841;SDS011;8021;48.022;11.812;2022-07-17T08:04:04;0.00;;;0.00;;
15841;SDS011;8021;48.022;11.812;2022-07-17T08:06:32;0.00;;;0.00;;
15841;SDS011;8021;48.022;11.812;2022-07-17T08:09:00;0.00;;;0.00;;
15841;SDS011;8021;48.022;11.812;2022-07-17T08:11:29;0.00;;;0.00;;
15841;SDS011;8021;48.022;11.812;2022-07-17T08:13:56;0.00;;;0.00;;
15841;SDS011;8021;48.022;11.812;2022-07-17T08:16:33;0.00;;;0.00;;
15841;SDS011;8021;48.022;11.812;2022-07-17T08:19:02;0.00;;;0.00;;
15841;SDS011;8021;48.022;11.812;2022-07-17T08:21:29;0.00;;;0.00;;
15841;SDS011;8021;48.022;11.812;2022-07-17T08:23:57;0.00;;;0.00;;
15841;SDS011;8021;48.022;11.812;2022-07-17T08:26:24;0.00;;;0.00;;
15841;SDS011;8021;48.022;11.812;2022-07-17T08:28:54;0.00;;;0.00;;
15841;SDS011;8021;48.022;11.812;2022-07-17T08:31:22;0.00;;;0.00;;
15841;SDS011;8021;48.022;11.812;2022-07-17T08:33:49;0.00;;;0.00;;
15841;SDS011;8021;48.022;11.812;2022-07-17T08:36:18;0.00;;;0.00;;
15841;SDS011;8021;48.022;11.812;2022-07-17T08:38:46;0.00;;;0.00;;
15841;SDS011;8021;48.022;11.812;2022-07-17T08:41:14;0.00;;;0.00;;
15841;SDS011;8021;48.022;11.812;2022-07-17T08:43:43;0.00;;;0.00;;
15841;SDS011;8021;48.022;11.812;2022-07-17T08:46:12;0.00;;;0.00;;
15841;SDS011;8021;48.022;11.812;2022-07-17T08:48:40;0.00;;;0.00;;
15841;SDS011;8021;48.022;11.812;2022-07-17T08:51:08;0.00;;;0.00;;
15841;SDS011;8021;48.022;11.812;2022-07-17T08:53:37;0.00;;;0.00;;
15841;SDS011;8021;48.022;11.812;2022-07-17T08:56:06;0.00;;;0.00;;
15841;SDS011;8021;48.022;11.812;2022-07-17T08:58:33;0.00;;;0.00;;
15841;SDS011;8021;48.022;11.812;2022-07-17T09:01:01;0.00;;;0.00;;
15841;SDS011;8021;48.022;11.812;2022-07-17T09:03:30;0.00;;;0.00;;
15841;SDS011;8021;48.022;11.812;2022-07-17T09:06:16;0.00;;;0.00;;
15841;SDS011;8021;48.022;11.812;2022-07-17T09:08:44;0.00;;;0.00;;
15841;SDS011;8021;48.022;11.812;2022-07-17T09:11:11;0.00;;;0.00;;
15841;SDS011;8021;48.022;11.812;2022-07-17T09:13:42;0.00;;;0.00;;
15841;SDS011;8021;48.022;11.812;2022-07-17T09:16:10;0.00;;;0.00;;
15841;SDS011;8021;48.022;11.812;2022-07-17T09:18:44;0.00;;;0.00;;
15841;SDS011;8021;48.022;11.812;2022-07-17T09:21:16;0.00;;;0.00;;
15841;SDS011;8021;48.022;11.812;2022-07-17T09:23:44;0.00;;;0.00;;
15841;SDS011;8021;48.022;11.812;2022-07-17T09:26:11;0.03;;;0.00;;
15841;SDS011;8021;48.022;11.812;2022-07-17T09:28:44;0.00;;;0.00;;
15841;SDS011;8021;48.022;11.812;2022-07-17T09:31:12;0.00;;;0.00;;
15841;SDS011;8021;48.022;11.812;2022-07-17T09:33:41;0.10;;;0.10;;
15841;SDS011;8021;48.022;11.812;2022-07-17T09:36:13;0.10;;;0.10;;
15841;SDS011;8021;48.022;11.812;2022-07-17T09:38:41;0.10;;;0.10;;
15841;SDS011;8021;48.022;11.812;2022-07-17T09:41:11;0.10;;;0.10;;
15841;SDS011;8021;48.022;11.812;2022-07-17T09:43:41;0.10;;;0.10;;
15841;SDS011;8021;48.022;11.812;2022-07-17T09:46:12;0.10;;;0.10;;
15841;SDS011;8021;48.022;11.812;2022-07-17T09:48:41;0.10;;;0.10;;
15841;SDS011;8021;48.022;11.812;2022-07-17T09:51:16;0.10;;;0.10;;
15841;SDS011;8021;48.022;11.812;2022-07-17T09:53:45;0.10;;;0.10;;
15841;SDS011;8021;48.022;11.812;2022-07-17T09:56:14;0.10;;;0.10;;
15841;SDS011;8021;48.022;11.812;2022-07-17T09:58:43;0.10;;;0.10;;
15841;SDS011;8021;48.022;11.812;2022-07-17T10:01:13;0.10;;;0.10;;
15841;SDS011;8021;48.022;11.812;2022-07-17T10:03:41;0.13;;;0.13;;
15841;SDS011;8021;48.022;11.812;2022-07-17T10:06:09;0.10;;;0.10;;
15841;SDS011;8021;48.022;11.812;2022-07-17T10:08:38;0.00;;;0.00;;
15841;SDS011;8021;48.022;11.812;2022-07-17T10:11:07;0.10;;;0.10;;
15841;SDS011;8021;48.022;11.812;2022-07-17T10:13:35;0.10;;;0.10;;
15841;SDS011;8021;48.022;11.812;2022-07-17T10:16:03;0.10;;;0.10;;
15841;SDS011;8021;48.022;11.812;2022-07-17T10:18:34;0.10;;;0.10;;
15841;SDS011;8021;48.022;11.812;2022-07-17T10:26:34;0.10;;;0.10;;
15841;SDS011;8021;48.022;11.812;2022-07-17T10:29:06;0.10;;;0.10;;
15841;SDS011;8021;48.022;11.812;2022-07-17T10:31:34;0.10;;;0.03;;
15841;SDS011;8021;48.022;11.812;2022-07-17T10:34:03;0.10;;;0.10;;
15841;SDS011;8021;48.022;11.812;2022-07-17T10:36:32;0.10;;;0.10;;
15841;SDS011;8021;48.022;11.812;2022-07-17T10:39:09;0.08;;;0.08;;
15841;SDS011;8021;48.022;11.812;2022-07-17T10:41:38;0.10;;;0.10;;
15841;SDS011;8021;48.022;11.812;2022-07-17T10:44:06;0.10;;;0.10;;
15841;SDS011;8021;48.022;11.812;2022-07-17T10:46:34;0.10;;;0.10;;
15841;SDS011;8021;48.022;11.812;2022-07-17T10:49:03;0.10;;;0.10;;
15841;SDS011;8021;48.022;11.812;2022-07-17T10:51:31;0.10;;;0.10;;
15841;SDS011;8021;48.022;11.812;2022-07-17T10:54:00;0.10;;;0.03;;
15841;SDS011;8021;48.022;11.812;2022-07-17T10:56:28;0.10;;;0.10;;
15841;SDS011;8021;48.022;11.812;2022-07-17T10:59:02;0.10;;;0.10;;
15841;SDS011;8021;48.022;11.812;2022-07-17T11:01:30;0.10;;;0.10;;
15841;SDS011;8021;48.022;11.812;2022-07-17T11:03:58;0.10;;;0.03;;
15841;SDS011;8021;48.022;11.812;2022-07-17T11:06:27;0.10;;;0.10;;
15841;SDS011;8021;48.022;11.812;2022-07-17T11:08:57;0.10;;;0.10;;
15841;SDS011;8021;48.022;11.812;2022-07-17T11:11:35;0.10;;;0.10;;
15841;SDS011;8021;48.022;11.812;2022-07-17T11:14:11;0.10;;;0.10;;
15841;SDS011;8021;48.022;11.812;2022-07-17T11:16:43;0.10;;;0.10;;
15841;SDS011;8021;48.022;11.812;2022-07-17T11:19:11;0.10;;;0.10;;
15841;SDS011;8021;48.022;11.812;2022-07-17T11:21:45;0.10;;;0.10;;
15841;SDS011;8021;48.022;11.812;2022-07-17T11:24:13;0.10;;;0.10;;
15841;SDS011;8021;48.022;11.812;2022-07-17T11:26:41;0.10;;;0.10;;
15841;SDS011;8021;48.022;11.812;2022-07-17T11:29:10;0.10;;;0.10;;
15841;SDS011;8021;48.022;11.812;2022-07-17T11:31:38;0.10;;;0.10;;
15841;SDS011;8021;48.022;11.812;2022-07-17T11:34:06;0.10;;;0.10;;
15841;SDS011;8021;48.022;11.812;2022-07-17T11:36:36;0.10;;;0.10;;
15841;SDS011;8021;48.022;11.812;2022-07-17T11:39:08;0.10;;;0.10;;
15841;SDS011;8021;48.022;11.812;2022-07-17T11:41:37;0.10;;;0.10;;
15841;SDS011;8021;48.022;11.812;2022-07-17T11:44:06;0.10;;;0.10;;
15841;SDS011;8021;48.022;11.812;2022-07-17T11:46:35;0.10;;;0.10;;
15841;SDS011;8021;48.022;11.812;2022-07-17T11:49:03;0.10;;;0.10;;
15841;SDS011;8021;48.022;11.812;2022-07-17T11:51:38;0.10;;;0.10;;
15841;SDS011;8021;48.022;11.812;2022-07-17T11:54:07;0.10;;;0.10;;
15841;SDS011;8021;48.022;11.812;2022-07-17T11:56:35;0.10;;;0.10;;
15841;SDS011;8021;48.022;11.812;2022-07-17T11:59:02;0.10;;;0.10;;
15841;SDS011;8021;48.022;11.812;2022-07-17T12:01:38;0.10;;;0.10;;
15841;SDS011;8021;48.022;11.812;2022-07-17T12:04:06;0.10;;;0.10;;
15841;SDS011;8021;48.022;11.812;2022-07-17T12:06:41;0.10;;;0.00;;
15841;SDS011;8021;48.022;11.812;2022-07-17T12:09:09;0.10;;;0.10;;
15841;SDS011;8021;48.022;11.812;2022-07-17T12:11:44;0.10;;;0.10;;
15841;SDS011;8021;48.022;11.812;2022-07-17T12:14:12;0.10;;;0.10;;
15841;SDS011;8021;48.022;11.812;2022-07-17T12:16:41;0.10;;;0.10;;
15841;SDS011;8021;48.022;11.812;2022-07-17T12:19:09;0.10;;;0.10;;
15841;SDS011;8021;48.022;11.812;2022-07-17T12:21:50;0.10;;;0.10;;
15841;SDS011;8021;48.022;11.812;2022-07-17T12:24:20;0.10;;;0.10;;
15841;SDS011;8021;48.022;11.812;2022-07-17T12:26:48;0.10;;;0.10;;
15841;SDS011;8021;48.022;11.812;2022-07-17T12:29:16;0.05;;;0.00;;
15841;SDS011;8021;48.022;11.812;2022-07-17T12:31:45;0.10;;;0.10;;
15841;SDS011;8021;48.022;11.812;2022-07-17T12:34:13;0.10;;;0.10;;
15841;SDS011;8021;48.022;11.812;2022-07-17T12:36:40;0.00;;;0.00;;
15841;SDS011;8021;48.022;11.812;2022-07-17T12:39:08;0.03;;;0.00;;
15841;SDS011;8021;48.022;11.812;2022-07-17T12:41:36;0.08;;;0.08;;
15841;SDS011;8021;48.022;11.812;2022-07-17T12:44:04;0.10;;;0.10;;
15841;SDS011;8021;48.022;11.812;2022-07-17T12:46:31;0.10;;;0.10;;
15841;SDS011;8021;48.022;11.812;2022-07-17T12:49:01;0.10;;;0.10;;
15841;SDS011;8021;48.022;11.812;2022-07-17T12:51:29;0.00;;;0.00;;
15841;SDS011;8021;48.022;11.812;2022-07-17T12:53:57;0.20;;;0.10;;
15841;SDS011;8021;48.022;11.812;2022-07-17T12:56:25;0.10;;;0.10;;
15841;SDS011;8021;48.022;11.812;2022-07-17T12:58:54;0.10;;;0.10;;
15841;SDS011;8021;48.022;11.812;2022-07-17T13:01:27;0.10;;;0.10;;
15841;SDS011;8021;48.022;11.812;2022-07-17T13:03:55;0.10;;;0.10;;
15841;SDS011;8021;48.022;11.812;2022-07-17T13:06:24;0.10;;;0.10;;
15841;SDS011;8021;48.022;11.812;2022-07-17T13:08:52;0.10;;;0.10;;
15841;SDS011;8021;48.022;11.812;2022-07-17T13:11:19;0.10;;;0.10;;
15841;SDS011;8021;48.022;11.812;2022-07-17T13:13:47;0.10;;;0.10;;
15841;SDS011;8021;48.022;11.812;2022-07-17T13:16:15;0.10;;;0.10;;
15841;SDS011;8021;48.022;11.812;2022-07-17T13:18:43;0.10;;;0.10;;
15841;SDS011;8021;48.022;11.812;2022-07-17T13:21:11;0.10;;;0.10;;
15841;SDS011;8021;48.022;11.812;2022-07-17T13:23:41;0.10;;;0.10;;
15841;SDS011;8021;48.022;11.812;2022-07-17T13:26:08;0.10;;;0.10;;
15841;SDS011;8021;48.022;11.812;2022-07-17T13:28:44;0.10;;;0.10;;
15841;SDS011;8021;48.022;11.812;2022-07-17T13:31:12;0.10;;;0.10;;
15841;SDS011;8021;48.022;11.812;2022-07-17T13:33:40;0.10;;;0.10;;
15841;SDS011;8021;48.022;11.812;2022-07-17T13:36:07;0.08;;;0.00;;
15841;SDS011;8021;48.022;11.812;2022-07-17T13:38:35;0.10;;;0.10;;
15841;SDS011;8021;48.022;11.812;2022-07-17T13:41:05;0.00;;;0.00;;
15841;SDS011;8021;48.022;11.812;2022-07-17T13:43:32;0.10;;;0.00;;
15841;SDS011;8021;48.022;11.812;2022-07-17T13:46:00;0.00;;;0.00;;
15841;SDS011;8021;48.022;11.812;2022-07-17T13:48:28;0.10;;;0.10;;
15841;SDS011;8021;48.022;11.812;2022-07-17T13:50:56;0.10;;;0.10;;
15841;SDS011;8021;48.022;11.812;2022-07-17T13:53:23;0.10;;;0.10;;
15841;SDS011;8021;48.022;11.812;2022-07-17T13:55:51;0.10;;;0.10;;
15841;SDS011;8021;48.022;11.812;2022-07-17T13:58:20;0.10;;;0.10;;
15841;SDS011;8021;48.022;11.812;2022-07-17T14:00:47;0.10;;;0.10;;
15841;SDS011;8021;48.022;11.812;2022-07-17T14:03:15;0.10;;;0.00;;
15841;SDS011;8021;48.022;11.812;2022-07-17T14:05:43;0.00;;;0.00;;
15841;SDS011;8021;48.022;11.812;2022-07-17T14:08:10;0.10;;;0.10;;
15841;SDS011;8021;48.022;11.812;2022-07-17T14:10:38;0.10;;;0.10;;
15841;SDS011;8021;48.022;11.812;2022-07-17T14:13:06;0.03;;;0.03;;
15841;SDS011;8021;48.022;11.812;2022-07-17T14:15:35;0.00;;;0.00;;
15841;SDS011;8021;48.022;11.812;2022-07-17T14:18:03;0.10;;;0.00;;
15841;SDS011;8021;48.022;11.812;2022-07-17T14:20:31;0.10;;;0.10;;
15841;SDS011;8021;48.022;11.812;2022-07-17T14:22:58;0.05;;;0.00;;
15841;SDS011;8021;48.022;11.812;2022-07-17T14:25:26;0.10;;;0.00;;
15841;SDS011;8021;48.022;11.812;2022-07-17T14:27:53;0.10;;;0.10;;
15841;SDS011;8021;48.022;11.812;2022-07-17T14:30:21;0.10;;;0.10;;
15841;SDS011;8021;48.022;11.812;2022-07-17T14:32:50;0.10;;;0.10;;
15841;SDS011;8021;48.022;11.812;2022-07-17T14:35:18;0.10;;;0.10;;
15841;SDS011;8021;48.022;11.812;2022-07-17T14:37:46;0.10;;;0.10;;
15841;SDS011;8021;48.022;11.812;2022-07-17T14:40:13;0.10;;;0.10;;
15841;SDS011;8021;48.022;11.812;2022-07-17T14:42:42;0.10;;;0.10;;
15841;SDS011;8021;48.022;11.812;2022-07-17T14:45:09;0.10;;;0.10;;
15841;SDS011;8021;48.022;11.812;2022-07-17T14:47:39;0.10;;;0.00;;
15841;SDS011;8021;48.022;11.812;2022-07-17T14:50:09;0.08;;;0.08;;
15841;SDS011;8021;48.022;11.812;2022-07-17T14:52:37;0.10;;;0.10;;
15841;SDS011;8021;48.022;11.812;2022-07-17T14:55:05;0.00;;;0.00;;
15841;SDS011;8021;48.022;11.812;2022-07-17T14:57:33;0.10;;;0.10;;
15841;SDS011;8021;48.022;11.812;2022-07-17T15:00:01;0.03;;;0.00;;
15841;SDS011;8021;48.022;11.812;2022-07-17T15:02:31;0.10;;;0.08;;